Chittenango, New York
Current Conditions -  °F | °C
As of 5:01 AM on Friday 19 Dec 2014 (Local Time) from KSYR Reporting Station
Light Snow Light Snow  
Wind Chill: 17°   Ceiling: 1700
Heat Index: 27°   Visibility: 8mi
Dew Point: 24°   Wind: 12mph
Humidity: 89%   Direction: 290°WNW
Pressure: 30.05"   Gusts: NA
Location:  43.05°N, 75.87°W
Report Text: KSYR 191001Z 29010KT 8SM -FZDZSN OVC017 M03/M04 A3005 RMK AO2 P0000 T10281044
Loading
Personal Weather Stations






























Interactive Weather Map New forecast layout! Learn more

10-Day Weather Forecast

Advertisements
Track Severe Weather on mobile